sensor_id;sensor_type;location;lat;lon;timestamp;temperature;humidity
46730;DHT22;32476;50.002;11.854;2023-11-19T00:00:06;1.50;99.90
46730;DHT22;32476;50.002;11.854;2023-11-19T00:02:39;1.50;99.90
46730;DHT22;32476;50.002;11.854;2023-11-19T00:05:05;1.50;99.90
46730;DHT22;32476;50.002;11.854;2023-11-19T00:07:38;1.50;99.90
46730;DHT22;32476;50.002;11.854;2023-11-19T00:10:12;1.60;99.90
46730;DHT22;32476;50.002;11.854;2023-11-19T00:12:43;1.50;99.90
46730;DHT22;32476;50.002;11.854;2023-11-19T00:15:15;1.60;99.90
46730;DHT22;32476;50.002;11.854;2023-11-19T00:17:42;1.60;99.90
46730;DHT22;32476;50.002;11.854;2023-11-19T00:20:18;1.60;99.90
46730;DHT22;32476;50.002;11.854;2023-11-19T00:22:46;1.60;99.90
46730;DHT22;32476;50.002;11.854;2023-11-19T00:25:17;1.60;99.90
46730;DHT22;32476;50.002;11.854;2023-11-19T00:27:45;1.60;99.90
46730;DHT22;32476;50.002;11.854;2023-11-19T00:30:11;1.60;99.90
46730;DHT22;32476;50.002;11.854;2023-11-19T00:32:37;1.60;99.90
46730;DHT22;32476;50.002;11.854;2023-11-19T00:35:07;1.60;99.90
46730;DHT22;32476;50.002;11.854;2023-11-19T00:37:33;1.60;99.90
46730;DHT22;32476;50.002;11.854;2023-11-19T00:39:59;1.70;99.90
46730;DHT22;32476;50.002;11.854;2023-11-19T00:42:26;1.70;99.90
46730;DHT22;32476;50.002;11.854;2023-11-19T00:44:52;1.70;99.90
46730;DHT22;32476;50.002;11.854;2023-11-19T00:47:18;1.70;99.90
46730;DHT22;32476;50.002;11.854;2023-11-19T00:49:47;1.60;99.90
46730;DHT22;32476;50.002;11.854;2023-11-19T00:52:16;1.70;99.90
46730;DHT22;32476;50.002;11.854;2023-11-19T00:54:43;1.70;99.90
46730;DHT22;32476;50.002;11.854;2023-11-19T00:57:10;1.60;99.90
46730;DHT22;32476;50.002;11.854;2023-11-19T00:59:36;1.70;99.90
46730;DHT22;32476;50.002;11.854;2023-11-19T01:02:02;1.70;99.90
46730;DHT22;32476;50.002;11.854;2023-11-19T01:04:34;1.70;99.90
46730;DHT22;32476;50.002;11.854;2023-11-19T01:07:02;1.60;99.90
46730;DHT22;32476;50.002;11.854;2023-11-19T01:09:33;1.70;99.90
46730;DHT22;32476;50.002;11.854;2023-11-19T01:12:02;1.70;99.90
46730;DHT22;32476;50.002;11.854;2023-11-19T01:14:28;1.70;99.90
46730;DHT22;32476;50.002;11.854;2023-11-19T01:16:56;1.70;99.90
46730;DHT22;32476;50.002;11.854;2023-11-19T01:19:22;1.70;99.90
46730;DHT22;32476;50.002;11.854;2023-11-19T01:21:51;1.70;99.90
46730;DHT22;32476;50.002;11.854;2023-11-19T01:24:18;1.70;99.90
46730;DHT22;32476;50.002;11.854;2023-11-19T01:26:44;1.80;99.90
46730;DHT22;32476;50.002;11.854;2023-11-19T01:29:14;1.80;99.90
46730;DHT22;32476;50.002;11.854;2023-11-19T01:31:42;1.80;99.90
46730;DHT22;32476;50.002;11.854;2023-11-19T01:34:09;1.80;99.90
46730;DHT22;32476;50.002;11.854;2023-11-19T01:36:35;1.80;99.90
46730;DHT22;32476;50.002;11.854;2023-11-19T01:39:03;1.80;99.90
46730;DHT22;32476;50.002;11.854;2023-11-19T01:41:34;1.90;99.90
46730;DHT22;32476;50.002;11.854;2023-11-19T01:44:03;1.90;99.90
46730;DHT22;32476;50.002;11.854;2023-11-19T01:46:30;1.90;99.90
46730;DHT22;32476;50.002;11.854;2023-11-19T01:48:58;1.90;99.90
46730;DHT22;32476;50.002;11.854;2023-11-19T01:51:27;2.00;99.90
46730;DHT22;32476;50.002;11.854;2023-11-19T01:53:53;2.00;99.90
46730;DHT22;32476;50.002;11.854;2023-11-19T01:56:21;2.00;99.90
46730;DHT22;32476;50.002;11.854;2023-11-19T01:58:49;2.00;99.90
46730;DHT22;32476;50.002;11.854;2023-11-19T02:01:16;2.10;99.90
46730;DHT22;32476;50.002;11.854;2023-11-19T02:03:42;2.00;99.90
46730;DHT22;32476;50.002;11.854;2023-11-19T02:06:09;2.00;99.90
46730;DHT22;32476;50.002;11.854;2023-11-19T02:08:36;2.00;99.90
46730;DHT22;32476;50.002;11.854;2023-11-19T02:11:02;2.00;99.90
46730;DHT22;32476;50.002;11.854;2023-11-19T02:13:30;2.00;99.90
46730;DHT22;32476;50.002;11.854;2023-11-19T02:15:55;2.00;99.90
46730;DHT22;32476;50.002;11.854;2023-11-19T02:18:23;2.10;99.90
46730;DHT22;32476;50.002;11.854;2023-11-19T02:20:51;2.10;99.90
46730;DHT22;32476;50.002;11.854;2023-11-19T02:23:18;2.10;99.90
46730;DHT22;32476;50.002;11.854;2023-11-19T02:25:50;2.20;99.90
46730;DHT22;32476;50.002;11.854;2023-11-19T02:28:21;2.20;99.90
46730;DHT22;32476;50.002;11.854;2023-11-19T02:30:47;2.20;99.90
46730;DHT22;32476;50.002;11.854;2023-11-19T02:33:13;2.20;99.90
46730;DHT22;32476;50.002;11.854;2023-11-19T02:35:42;2.20;99.90
46730;DHT22;32476;50.002;11.854;2023-11-19T02:38:08;2.30;99.90
46730;DHT22;32476;50.002;11.854;2023-11-19T02:40:35;2.30;99.90
46730;DHT22;32476;50.002;11.854;2023-11-19T02:43:02;2.30;99.90
46730;DHT22;32476;50.002;11.854;2023-11-19T02:45:30;2.30;99.90
46730;DHT22;32476;50.002;11.854;2023-11-19T02:47:56;2.30;99.90
46730;DHT22;32476;50.002;11.854;2023-11-19T02:50:25;2.30;99.90
46730;DHT22;32476;50.002;11.854;2023-11-19T02:52:53;2.40;99.90
46730;DHT22;32476;50.002;11.854;2023-11-19T02:55:19;2.40;99.90
46730;DHT22;32476;50.002;11.854;2023-11-19T02:57:46;2.40;99.90
46730;DHT22;32476;50.002;11.854;2023-11-19T03:00:15;2.40;99.90
46730;DHT22;32476;50.002;11.854;2023-11-19T03:02:42;2.40;99.90
46730;DHT22;32476;50.002;11.854;2023-11-19T03:05:21;2.40;99.90
46730;DHT22;32476;50.002;11.854;2023-11-19T03:07:46;2.40;99.90
46730;DHT22;32476;50.002;11.854;2023-11-19T03:10:12;2.40;99.90
46730;DHT22;32476;50.002;11.854;2023-11-19T03:12:43;2.40;99.90
46730;DHT22;32476;50.002;11.854;2023-11-19T03:15:09;2.40;99.90
46730;DHT22;32476;50.002;11.854;2023-11-19T03:17:42;2.50;99.90
46730;DHT22;32476;50.002;11.854;2023-11-19T03:20:12;2.50;99.90
46730;DHT22;32476;50.002;11.854;2023-11-19T03:22:42;2.50;99.90
46730;DHT22;32476;50.002;11.854;2023-11-19T03:25:09;2.50;99.90
46730;DHT22;32476;50.002;11.854;2023-11-19T03:27:37;2.50;99.90
46730;DHT22;32476;50.002;11.854;2023-11-19T03:30:10;2.50;99.90
46730;DHT22;32476;50.002;11.854;2023-11-19T03:32:38;2.50;99.90
46730;DHT22;32476;50.002;11.854;2023-11-19T03:35:05;2.60;99.90
46730;DHT22;32476;50.002;11.854;2023-11-19T03:37:35;2.60;99.90
46730;DHT22;32476;50.002;11.854;2023-11-19T03:40:04;2.60;99.90
46730;DHT22;32476;50.002;11.854;2023-11-19T03:42:29;2.60;99.90
46730;DHT22;32476;50.002;11.854;2023-11-19T03:44:58;2.70;99.90
46730;DHT22;32476;50.002;11.854;2023-11-19T03:47:26;2.70;99.90
46730;DHT22;32476;50.002;11.854;2023-11-19T03:49:52;2.70;99.90
46730;DHT22;32476;50.002;11.854;2023-11-19T03:52:18;2.80;99.90
46730;DHT22;32476;50.002;11.854;2023-11-19T03:54:46;2.80;99.90
46730;DHT22;32476;50.002;11.854;2023-11-19T03:57:12;2.80;99.90
46730;DHT22;32476;50.002;11.854;2023-11-19T03:59:39;2.80;99.90
46730;DHT22;32476;50.002;11.854;2023-11-19T04:02:06;2.80;99.90
46730;DHT22;32476;50.002;11.854;2023-11-19T04:04:32;2.80;99.90
46730;DHT22;32476;50.002;11.854;2023-11-19T04:06:58;2.80;99.90
46730;DHT22;32476;50.002;11.854;2023-11-19T04:09:27;2.80;99.90
46730;DHT22;32476;50.002;11.854;2023-11-19T04:11:53;2.90;99.90
46730;DHT22;32476;50.002;11.854;2023-11-19T04:14:19;2.90;99.90
46730;DHT22;32476;50.002;11.854;2023-11-19T04:16:47;2.90;99.90
46730;DHT22;32476;50.002;11.854;2023-11-19T04:19:13;2.90;99.90
46730;DHT22;32476;50.002;11.854;2023-11-19T04:21:42;2.90;99.90
46730;DHT22;32476;50.002;11.854;2023-11-19T04:24:09;2.90;99.90
46730;DHT22;32476;50.002;11.854;2023-11-19T04:26:42;2.90;99.90
46730;DHT22;32476;50.002;11.854;2023-11-19T04:29:11;2.90;99.90
46730;DHT22;32476;50.002;11.854;2023-11-19T04:31:38;2.90;99.90
46730;DHT22;32476;50.002;11.854;2023-11-19T04:34:05;3.00;99.90
46730;DHT22;32476;50.002;11.854;2023-11-19T04:36:34;3.00;99.90
46730;DHT22;32476;50.002;11.854;2023-11-19T04:39:00;3.00;99.90
46730;DHT22;32476;50.002;11.854;2023-11-19T04:41:27;3.00;99.90
46730;DHT22;32476;50.002;11.854;2023-11-19T04:43:54;3.00;99.90
46730;DHT22;32476;50.002;11.854;2023-11-19T04:46:20;3.00;99.90
46730;DHT22;32476;50.002;11.854;2023-11-19T04:48:46;3.00;99.90
46730;DHT22;32476;50.002;11.854;2023-11-19T04:51:14;3.00;99.90
46730;DHT22;32476;50.002;11.854;2023-11-19T04:53:40;3.00;99.90
46730;DHT22;32476;50.002;11.854;2023-11-19T04:56:10;3.10;99.90
46730;DHT22;32476;50.002;11.854;2023-11-19T04:58:38;3.00;99.90
46730;DHT22;32476;50.002;11.854;2023-11-19T05:01:04;3.10;99.90
46730;DHT22;32476;50.002;11.854;2023-11-19T05:03:30;3.10;99.90
46730;DHT22;32476;50.002;11.854;2023-11-19T05:05:58;3.10;99.90
46730;DHT22;32476;50.002;11.854;2023-11-19T05:08:24;3.10;99.90
46730;DHT22;32476;50.002;11.854;2023-11-19T05:10:50;3.10;99.90
46730;DHT22;32476;50.002;11.854;2023-11-19T05:13:18;3.10;99.90
46730;DHT22;32476;50.002;11.854;2023-11-19T05:15:44;3.10;99.90
46730;DHT22;32476;50.002;11.854;2023-11-19T05:18:09;3.10;99.90
46730;DHT22;32476;50.002;11.854;2023-11-19T05:20:37;3.10;99.90
46730;DHT22;32476;50.002;11.854;2023-11-19T05:23:02;3.10;99.90
46730;DHT22;32476;50.002;11.854;2023-11-19T05:25:28;3.20;99.90
46730;DHT22;32476;50.002;11.854;2023-11-19T05:27:55;3.20;99.90
46730;DHT22;32476;50.002;11.854;2023-11-19T05:30:21;3.20;99.90
46730;DHT22;32476;50.002;11.854;2023-11-19T05:32:48;3.20;99.90
46730;DHT22;32476;50.002;11.854;2023-11-19T05:35:15;3.20;99.90
46730;DHT22;32476;50.002;11.854;2023-11-19T05:37:41;3.30;99.90
46730;DHT22;32476;50.002;11.854;2023-11-19T05:40:07;3.30;99.90
46730;DHT22;32476;50.002;11.854;2023-11-19T05:42:41;3.30;99.90
46730;DHT22;32476;50.002;11.854;2023-11-19T05:45:09;3.30;99.90
46730;DHT22;32476;50.002;11.854;2023-11-19T05:47:35;3.40;99.90
46730;DHT22;32476;50.002;11.854;2023-11-19T05:50:03;3.40;99.90
46730;DHT22;32476;50.002;11.854;2023-11-19T05:52:31;3.40;99.90
46730;DHT22;32476;50.002;11.854;2023-11-19T05:55:02;3.40;99.90
46730;DHT22;32476;50.002;11.854;2023-11-19T05:57:32;3.40;99.90
46730;DHT22;32476;50.002;11.854;2023-11-19T06:00:00;3.50;99.90
46730;DHT22;32476;50.002;11.854;2023-11-19T06:02:26;3.40;99.90
46730;DHT22;32476;50.002;11.854;2023-11-19T06:04:54;3.50;99.90
46730;DHT22;32476;50.002;11.854;2023-11-19T06:07:27;3.50;99.90
46730;DHT22;32476;50.002;11.854;2023-11-19T06:09:55;3.50;99.90
46730;DHT22;32476;50.002;11.854;2023-11-19T06:12:21;3.50;99.90
46730;DHT22;32476;50.002;11.854;2023-11-19T06:14:46;3.50;99.90
46730;DHT22;32476;50.002;11.854;2023-11-19T06:17:14;3.50;99.90
46730;DHT22;32476;50.002;11.854;2023-11-19T06:19:40;3.50;99.90
46730;DHT22;32476;50.002;11.854;2023-11-19T06:22:05;3.40;99.90
46730;DHT22;32476;50.002;11.854;2023-11-19T06:24:33;3.40;99.90
46730;DHT22;32476;50.002;11.854;2023-11-19T06:26:59;3.50;99.90
46730;DHT22;32476;50.002;11.854;2023-11-19T06:29:25;3.70;99.90
46730;DHT22;32476;50.002;11.854;2023-11-19T06:31:52;3.60;99.90
46730;DHT22;32476;50.002;11.854;2023-11-19T06:34:18;3.60;99.90
46730;DHT22;32476;50.002;11.854;2023-11-19T06:36:44;3.60;99.90
46730;DHT22;32476;50.002;11.854;2023-11-19T06:39:12;3.60;99.90
46730;DHT22;32476;50.002;11.854;2023-11-19T06:41:38;3.70;99.90
46730;DHT22;32476;50.002;11.854;2023-11-19T06:44:05;3.80;99.90
46730;DHT22;32476;50.002;11.854;2023-11-19T06:46:32;3.80;99.90
46730;DHT22;32476;50.002;11.854;2023-11-19T06:48:58;3.90;99.90
46730;DHT22;32476;50.002;11.854;2023-11-19T06:51:24;4.10;99.90
46730;DHT22;32476;50.002;11.854;2023-11-19T06:53:51;4.20;99.90
46730;DHT22;32476;50.002;11.854;2023-11-19T06:56:23;4.30;99.90
46730;DHT22;32476;50.002;11.854;2023-11-19T06:58:51;4.40;99.90
46730;DHT22;32476;50.002;11.854;2023-11-19T07:01:18;4.50;99.90
46730;DHT22;32476;50.002;11.854;2023-11-19T07:03:47;4.60;99.90
46730;DHT22;32476;50.002;11.854;2023-11-19T07:06:15;4.60;99.90
46730;DHT22;32476;50.002;11.854;2023-11-19T07:08:44;4.70;99.90
46730;DHT22;32476;50.002;11.854;2023-11-19T07:11:15;4.80;99.90
46730;DHT22;32476;50.002;11.854;2023-11-19T07:13:42;4.90;99.90
46730;DHT22;32476;50.002;11.854;2023-11-19T07:16:08;4.90;99.90
46730;DHT22;32476;50.002;11.854;2023-11-19T07:18:37;5.00;99.90
46730;DHT22;32476;50.002;11.854;2023-11-19T07:21:04;5.10;99.90
46730;DHT22;32476;50.002;11.854;2023-11-19T07:23:30;5.10;99.90
46730;DHT22;32476;50.002;11.854;2023-11-19T07:25:58;5.20;99.90
46730;DHT22;32476;50.002;11.854;2023-11-19T07:28:24;5.20;99.90
46730;DHT22;32476;50.002;11.854;2023-11-19T07:30:50;5.30;99.90
46730;DHT22;32476;50.002;11.854;2023-11-19T07:33:18;5.30;99.90
46730;DHT22;32476;50.002;11.854;2023-11-19T07:35:44;5.40;99.90
46730;DHT22;32476;50.002;11.854;2023-11-19T07:38:10;5.40;99.90
46730;DHT22;32476;50.002;11.854;2023-11-19T07:40:37;5.40;99.90
46730;DHT22;32476;50.002;11.854;2023-11-19T07:43:03;5.50;99.90
46730;DHT22;32476;50.002;11.854;2023-11-19T07:45:28;5.50;99.90
46730;DHT22;32476;50.002;11.854;2023-11-19T07:47:56;5.50;99.90
46730;DHT22;32476;50.002;11.854;2023-11-19T07:50:21;5.60;99.90
46730;DHT22;32476;50.002;11.854;2023-11-19T07:52:47;5.60;99.90
46730;DHT22;32476;50.002;11.854;2023-11-19T07:55:15;5.60;99.90
46730;DHT22;32476;50.002;11.854;2023-11-19T07:57:42;5.70;99.90
46730;DHT22;32476;50.002;11.854;2023-11-19T08:00:09;5.70;99.90
46730;DHT22;32476;50.002;11.854;2023-11-19T08:02:39;5.70;99.90
46730;DHT22;32476;50.002;11.854;2023-11-19T08:05:05;5.90;99.90
46730;DHT22;32476;50.002;11.854;2023-11-19T08:07:31;5.90;99.90
46730;DHT22;32476;50.002;11.854;2023-11-19T08:09:58;5.90;99.90
46730;DHT22;32476;50.002;11.854;2023-11-19T08:12:25;6.10;99.90
46730;DHT22;32476;50.002;11.854;2023-11-19T08:14:51;6.10;99.90
46730;DHT22;32476;50.002;11.854;2023-11-19T08:17:18;6.10;99.90
46730;DHT22;32476;50.002;11.854;2023-11-19T08:19:44;6.20;99.90
46730;DHT22;32476;50.002;11.854;2023-11-19T08:22:10;6.30;99.90
46730;DHT22;32476;50.002;11.854;2023-11-19T08:24:38;6.30;99.90
46730;DHT22;32476;50.002;11.854;2023-11-19T08:27:03;6.30;99.90
46730;DHT22;32476;50.002;11.854;2023-11-19T08:29:30;6.40;99.90
46730;DHT22;32476;50.002;11.854;2023-11-19T08:31:57;6.50;99.90
46730;DHT22;32476;50.002;11.854;2023-11-19T08:34:25;6.60;99.90
46730;DHT22;32476;50.002;11.854;2023-11-19T08:36:51;6.80;99.90
46730;DHT22;32476;50.002;11.854;2023-11-19T08:39:20;6.90;99.90
46730;DHT22;32476;50.002;11.854;2023-11-19T08:41:50;7.00;99.90
46730;DHT22;32476;50.002;11.854;2023-11-19T08:44:16;7.00;99.90
46730;DHT22;32476;50.002;11.854;2023-11-19T08:46:50;7.10;99.90
46730;DHT22;32476;50.002;11.854;2023-11-19T08:49:17;7.10;99.90
46730;DHT22;32476;50.002;11.854;2023-11-19T08:51:45;7.10;99.90
46730;DHT22;32476;50.002;11.854;2023-11-19T08:54:11;7.10;99.90
46730;DHT22;32476;50.002;11.854;2023-11-19T08:56:38;7.20;99.90
46730;DHT22;32476;50.002;11.854;2023-11-19T08:59:08;7.20;99.90
46730;DHT22;32476;50.002;11.854;2023-11-19T09:01:34;7.30;99.90
46730;DHT22;32476;50.002;11.854;2023-11-19T09:04:00;7.30;99.90
46730;DHT22;32476;50.002;11.854;2023-11-19T09:06:27;7.40;99.90
46730;DHT22;32476;50.002;11.854;2023-11-19T09:08:53;7.40;99.90
46730;DHT22;32476;50.002;11.854;2023-11-19T09:11:19;7.50;99.90
46730;DHT22;32476;50.002;11.854;2023-11-19T09:13:46;7.50;99.90
46730;DHT22;32476;50.002;11.854;2023-11-19T09:16:12;7.60;99.90
46730;DHT22;32476;50.002;11.854;2023-11-19T09:18:38;7.60;99.90
46730;DHT22;32476;50.002;11.854;2023-11-19T09:21:05;7.60;99.90
46730;DHT22;32476;50.002;11.854;2023-11-19T09:23:31;7.70;99.90
46730;DHT22;32476;50.002;11.854;2023-11-19T09:26:02;7.70;99.90
46730;DHT22;32476;50.002;11.854;2023-11-19T09:28:29;7.80;99.90
46730;DHT22;32476;50.002;11.854;2023-11-19T09:30:55;7.80;99.90
46730;DHT22;32476;50.002;11.854;2023-11-19T09:33:21;7.80;99.90
46730;DHT22;32476;50.002;11.854;2023-11-19T09:35:48;7.90;99.90
46730;DHT22;32476;50.002;11.854;2023-11-19T09:38:15;7.80;99.90
46730;DHT22;32476;50.002;11.854;2023-11-19T09:40:41;7.90;99.90
46730;DHT22;32476;50.002;11.854;2023-11-19T09:43:09;8.00;99.90
46730;DHT22;32476;50.002;11.854;2023-11-19T09:45:48;8.00;99.90
46730;DHT22;32476;50.002;11.854;2023-11-19T09:48:19;8.10;99.90
46730;DHT22;32476;50.002;11.854;2023-11-19T09:50:47;8.10;99.90
46730;DHT22;32476;50.002;11.854;2023-11-19T09:53:16;8.20;99.90
46730;DHT22;32476;50.002;11.854;2023-11-19T09:55:44;8.20;99.90
46730;DHT22;32476;50.002;11.854;2023-11-19T09:58:12;8.20;99.90
46730;DHT22;32476;50.002;11.854;2023-11-19T10:00:40;8.20;99.90
46730;DHT22;32476;50.002;11.854;2023-11-19T10:03:09;8.50;99.90
46730;DHT22;32476;50.002;11.854;2023-11-19T10:05:36;8.60;99.90
46730;DHT22;32476;50.002;11.854;2023-11-19T10:08:05;8.80;99.90
46730;DHT22;32476;50.002;11.854;2023-11-19T10:10:33;8.80;99.90
46730;DHT22;32476;50.002;11.854;2023-11-19T10:12:59;8.80;99.90
46730;DHT22;32476;50.002;11.854;2023-11-19T10:15:26;8.90;99.90
46730;DHT22;32476;50.002;11.854;2023-11-19T10:17:57;8.90;99.90
46730;DHT22;32476;50.002;11.854;2023-11-19T10:20:23;9.00;99.90
46730;DHT22;32476;50.002;11.854;2023-11-19T10:22:53;9.00;99.90
46730;DHT22;32476;50.002;11.854;2023-11-19T10:25:26;9.10;99.90
46730;DHT22;32476;50.002;11.854;2023-11-19T10:27:53;9.10;99.90
46730;DHT22;32476;50.002;11.854;2023-11-19T10:30:28;9.00;99.90
46730;DHT22;32476;50.002;11.854;2023-11-19T10:33:08;8.90;99.90
46730;DHT22;32476;50.002;11.854;2023-11-19T10:35:54;8.90;99.90
46730;DHT22;32476;50.002;11.854;2023-11-19T10:38:20;8.80;99.90
46730;DHT22;32476;50.002;11.854;2023-11-19T10:40:52;8.70;99.90
46730;DHT22;32476;50.002;11.854;2023-11-19T10:43:18;8.70;99.90
46730;DHT22;32476;50.002;11.854;2023-11-19T10:45:45;8.70;99.90
46730;DHT22;32476;50.002;11.854;2023-11-19T10:48:12;8.70;99.90
46730;DHT22;32476;50.002;11.854;2023-11-19T10:50:40;8.70;99.90
46730;DHT22;32476;50.002;11.854;2023-11-19T10:53:08;8.80;99.90
46730;DHT22;32476;50.002;11.854;2023-11-19T10:55:37;8.80;99.90
46730;DHT22;32476;50.002;11.854;2023-11-19T10:58:07;8.70;99.90
46730;DHT22;32476;50.002;11.854;2023-11-19T11:00:44;8.70;99.90
46730;DHT22;32476;50.002;11.854;2023-11-19T11:03:18;8.70;99.90
46730;DHT22;32476;50.002;11.854;2023-11-19T11:05:47;8.70;99.90
46730;DHT22;32476;50.002;11.854;2023-11-19T11:08:15;8.70;99.90
46730;DHT22;32476;50.002;11.854;2023-11-19T11:10:52;8.70;99.90
46730;DHT22;32476;50.002;11.854;2023-11-19T11:13:20;8.70;99.90
46730;DHT22;32476;50.002;11.854;2023-11-19T11:15:49;8.70;99.90
46730;DHT22;32476;50.002;11.854;2023-11-19T11:18:15;8.70;99.90
46730;DHT22;32476;50.002;11.854;2023-11-19T11:20:44;8.70;99.90
46730;DHT22;32476;50.002;11.854;2023-11-19T11:37:56;8.50;99.90
46730;DHT22;32476;50.002;11.854;2023-11-19T11:40:25;8.40;99.90
46730;DHT22;32476;50.002;11.854;2023-11-19T11:42:53;8.40;99.90
46730;DHT22;32476;50.002;11.854;2023-11-19T11:45:38;8.40;99.90
46730;DHT22;32476;50.002;11.854;2023-11-19T11:48:08;8.40;99.90
46730;DHT22;32476;50.002;11.854;2023-11-19T11:50:36;8.40;99.90
46730;DHT22;32476;50.002;11.854;2023-11-19T11:53:16;8.50;99.90
46730;DHT22;32476;50.002;11.854;2023-11-19T11:58:20;8.60;99.90
46730;DHT22;32476;50.002;11.854;2023-11-19T12:00:47;8.60;99.90
46730;DHT22;32476;50.002;11.854;2023-11-19T12:03:15;8.50;99.90
46730;DHT22;32476;50.002;11.854;2023-11-19T12:05:45;8.50;99.90
46730;DHT22;32476;50.002;11.854;2023-11-19T12:08:12;8.50;99.90
46730;DHT22;32476;50.002;11.854;2023-11-19T12:10:50;8.50;99.90
46730;DHT22;32476;50.002;11.854;2023-11-19T12:13:17;8.50;99.90
46730;DHT22;32476;50.002;11.854;2023-11-19T12:20:51;8.70;99.90
46730;DHT22;32476;50.002;11.854;2023-11-19T12:23:17;8.70;99.90
46730;DHT22;32476;50.002;11.854;2023-11-19T12:25:43;8.70;99.90
46730;DHT22;32476;50.002;11.854;2023-11-19T12:28:13;8.80;99.90
46730;DHT22;32476;50.002;11.854;2023-11-19T12:30:39;8.70;99.90
46730;DHT22;32476;50.002;11.854;2023-11-19T12:33:08;8.80;99.90
46730;DHT22;32476;50.002;11.854;2023-11-19T12:38:05;8.80;99.90
46730;DHT22;32476;50.002;11.854;2023-11-19T12:40:32;8.80;99.90
46730;DHT22;32476;50.002;11.854;2023-11-19T12:42:59;8.80;99.90
46730;DHT22;32476;50.002;11.854;2023-11-19T12:45:35;8.80;99.90
46730;DHT22;32476;50.002;11.854;2023-11-19T12:48:06;8.80;99.90
46730;DHT22;32476;50.002;11.854;2023-11-19T12:50:54;8.80;99.90
46730;DHT22;32476;50.002;11.854;2023-11-19T12:53:24;8.80;99.90
46730;DHT22;32476;50.002;11.854;2023-11-19T12:55:51;8.70;99.90
46730;DHT22;32476;50.002;11.854;2023-11-19T12:58:33;8.80;99.90
46730;DHT22;32476;50.002;11.854;2023-11-19T13:01:06;8.70;99.90
46730;DHT22;32476;50.002;11.854;2023-11-19T13:03:33;8.70;99.90
46730;DHT22;32476;50.002;11.854;2023-11-19T13:06:03;8.70;99.90
46730;DHT22;32476;50.002;11.854;2023-11-19T13:08:42;8.70;99.90
46730;DHT22;32476;50.002;11.854;2023-11-19T13:11:12;8.70;99.90
46730;DHT22;32476;50.002;11.854;2023-11-19T13:14:00;8.70;99.90
46730;DHT22;32476;50.002;11.854;2023-11-19T13:16:28;8.60;99.90
46730;DHT22;32476;50.002;11.854;2023-11-19T13:18:54;8.60;99.90
46730;DHT22;32476;50.002;11.854;2023-11-19T13:21:20;8.60;99.90
46730;DHT22;32476;50.002;11.854;2023-11-19T13:23:47;8.60;99.90
46730;DHT22;32476;50.002;11.854;2023-11-19T13:26:13;8.60;99.90
46730;DHT22;32476;50.002;11.854;2023-11-19T13:28:39;8.60;99.90
46730;DHT22;32476;50.002;11.854;2023-11-19T13:31:06;8.60;99.90
46730;DHT22;32476;50.002;11.854;2023-11-19T13:33:33;8.60;99.90
46730;DHT22;32476;50.002;11.854;2023-11-19T13:35:59;8.60;99.90
46730;DHT22;32476;50.002;11.854;2023-11-19T13:38:33;8.60;99.90
46730;DHT22;32476;50.002;11.854;2023-11-19T13:40:59;8.60;99.90
46730;DHT22;32476;50.002;11.854;2023-11-19T13:43:26;8.60;99.90
46730;DHT22;32476;50.002;11.854;2023-11-19T13:45:55;8.60;99.90
46730;DHT22;32476;50.002;11.854;2023-11-19T13:48:21;8.50;99.90
46730;DHT22;32476;50.002;11.854;2023-11-19T13:50:47;8.60;99.90
46730;DHT22;32476;50.002;11.854;2023-11-19T13:53:15;8.50;99.90
46730;DHT22;32476;50.002;11.854;2023-11-19T13:55:42;8.50;99.90
46730;DHT22;32476;50.002;11.854;2023-11-19T13:58:07;8.50;99.90
46730;DHT22;32476;50.002;11.854;2023-11-19T14:00:35;8.50;99.90
46730;DHT22;32476;50.002;11.854;2023-11-19T14:03:01;8.40;99.90
46730;DHT22;32476;50.002;11.854;2023-11-19T14:05:26;8.40;99.90
46730;DHT22;32476;50.002;11.854;2023-11-19T14:07:54;8.30;99.90
46730;DHT22;32476;50.002;11.854;2023-11-19T14:10:22;8.30;99.90
46730;DHT22;32476;50.002;11.854;2023-11-19T14:12:48;8.30;99.90
46730;DHT22;32476;50.002;11.854;2023-11-19T14:15:17;8.40;99.90
46730;DHT22;32476;50.002;11.854;2023-11-19T14:17:43;8.30;99.90
46730;DHT22;32476;50.002;11.854;2023-11-19T14:20:09;8.40;99.90
46730;DHT22;32476;50.002;11.854;2023-11-19T14:22:40;8.40;99.90
46730;DHT22;32476;50.002;11.854;2023-11-19T14:25:06;8.30;99.90
46730;DHT22;32476;50.002;11.854;2023-11-19T14:27:40;8.30;99.90
46730;DHT22;32476;50.002;11.854;2023-11-19T14:30:09;8.30;99.90
46730;DHT22;32476;50.002;11.854;2023-11-19T14:32:37;8.30;99.90
46730;DHT22;32476;50.002;11.854;2023-11-19T14:35:06;8.30;99.90
46730;DHT22;32476;50.002;11.854;2023-11-19T14:37:34;8.30;99.90
46730;DHT22;32476;50.002;11.854;2023-11-19T14:40:00;8.30;99.90
46730;DHT22;32476;50.002;11.854;2023-11-19T14:42:27;8.30;99.90
46730;DHT22;32476;50.002;11.854;2023-11-19T14:44:54;8.30;99.90
46730;DHT22;32476;50.002;11.854;2023-11-19T14:47:21;8.40;99.90
46730;DHT22;32476;50.002;11.854;2023-11-19T14:49:47;8.40;99.90
46730;DHT22;32476;50.002;11.854;2023-11-19T14:52:15;8.30;99.90
46730;DHT22;32476;50.002;11.854;2023-11-19T14:54:40;8.40;99.90
46730;DHT22;32476;50.002;11.854;2023-11-19T14:57:07;8.30;99.90
46730;DHT22;32476;50.002;11.854;2023-11-19T14:59:37;8.50;99.90
46730;DHT22;32476;50.002;11.854;2023-11-19T15:02:04;8.50;99.90
46730;DHT22;32476;50.002;11.854;2023-11-19T15:04:31;8.40;99.90
46730;DHT22;32476;50.002;11.854;2023-11-19T15:06:59;8.40;99.90
46730;DHT22;32476;50.002;11.854;2023-11-19T15:09:26;8.40;99.90
46730;DHT22;32476;50.002;11.854;2023-11-19T15:11:55;8.40;99.90
46730;DHT22;32476;50.002;11.854;2023-11-19T15:14:22;8.40;99.90
46730;DHT22;32476;50.002;11.854;2023-11-19T15:16:48;8.30;99.90
46730;DHT22;32476;50.002;11.854;2023-11-19T15:19:17;8.40;99.90
46730;DHT22;32476;50.002;11.854;2023-11-19T15:21:44;8.40;99.90
46730;DHT22;32476;50.002;11.854;2023-11-19T15:24:10;8.30;99.90
46730;DHT22;32476;50.002;11.854;2023-11-19T15:26:37;8.30;99.90
46730;DHT22;32476;50.002;11.854;2023-11-19T15:29:05;8.30;99.90
46730;DHT22;32476;50.002;11.854;2023-11-19T15:31:31;8.30;99.90
46730;DHT22;32476;50.002;11.854;2023-11-19T15:33:57;8.30;99.90
46730;DHT22;32476;50.002;11.854;2023-11-19T15:36:24;8.30;99.90
46730;DHT22;32476;50.002;11.854;2023-11-19T15:38:50;8.30;99.90
46730;DHT22;32476;50.002;11.854;2023-11-19T15:41:16;8.30;99.90
46730;DHT22;32476;50.002;11.854;2023-11-19T15:43:43;8.30;99.90
46730;DHT22;32476;50.002;11.854;2023-11-19T15:46:09;8.30;99.90
46730;DHT22;32476;50.002;11.854;2023-11-19T15:48:36;8.30;99.90
46730;DHT22;32476;50.002;11.854;2023-11-19T15:51:04;8.20;99.90
46730;DHT22;32476;50.002;11.854;2023-11-19T15:53:30;8.20;99.90
46730;DHT22;32476;50.002;11.854;2023-11-19T15:55:59;8.10;99.90
46730;DHT22;32476;50.002;11.854;2023-11-19T15:58:26;8.00;99.90